createdAt,value
2022-09-12T00:02:04.284Z,16.97
2022-09-12T00:04:31.501Z,16.83
2022-09-12T00:06:58.669Z,16.86
2022-09-12T00:09:25.919Z,16.84
2022-09-12T00:11:53.251Z,16.73
2022-09-12T00:14:20.510Z,16.71
2022-09-12T00:16:47.752Z,16.72
2022-09-12T00:19:15.299Z,16.63
2022-09-12T00:21:42.882Z,16.54
2022-09-12T00:24:11.479Z,16.54
2022-09-12T00:26:38.676Z,16.57
2022-09-12T00:29:05.951Z,16.48
2022-09-12T00:31:33.309Z,16.50
2022-09-12T00:34:01.633Z,16.47
2022-09-12T00:36:30.366Z,16.36
2022-09-12T00:38:58.163Z,16.41
2022-09-12T00:41:37.018Z,16.44
2022-09-12T00:44:24.268Z,16.39
2022-09-12T00:46:57.150Z,16.38
2022-09-12T00:49:31.004Z,16.41
2022-09-12T00:52:08.453Z,16.42
2022-09-12T00:54:43.914Z,16.32
2022-09-12T00:57:13.187Z,16.23
2022-09-12T00:59:48.797Z,16.12
2022-09-12T01:02:17.208Z,16.09
2022-09-12T01:04:44.752Z,16.09
2022-09-12T01:07:12.859Z,16.13
2022-09-12T01:09:42.044Z,16.14
2022-09-12T01:12:10.081Z,16.04
2022-09-12T01:14:37.725Z,16.06
2022-09-12T01:17:04.949Z,16.07
2022-09-12T01:19:43.901Z,16.05
2022-09-12T01:22:29.640Z,15.89
2022-09-12T01:25:05.660Z,15.67
2022-09-12T01:28:06.895Z,15.82
2022-09-12T01:31:00.929Z,15.87
2022-09-12T01:33:30.905Z,15.79
2022-09-12T01:36:17.136Z,15.77
2022-09-12T01:38:53.183Z,15.73
2022-09-12T01:41:26.132Z,15.74
2022-09-12T01:44:19.681Z,15.72
2022-09-12T01:47:12.767Z,15.72
2022-09-12T01:49:56.154Z,15.75
2022-09-12T01:52:29.673Z,15.74
2022-09-12T01:54:56.998Z,15.82
2022-09-12T01:57:32.209Z,15.83
2022-09-12T02:00:04.261Z,15.62
2022-09-12T02:02:54.740Z,15.60
2022-09-12T02:05:38.262Z,15.59
2022-09-12T02:08:13.925Z,15.60
2022-09-12T02:10:47.801Z,15.66
2022-09-12T02:13:34.733Z,15.64
2022-09-12T02:16:08.632Z,15.61
2022-09-12T02:18:44.717Z,15.61
2022-09-12T02:21:12.461Z,15.56
2022-09-12T02:23:44.923Z,15.51
2022-09-12T02:26:27.531Z,15.47
2022-09-12T02:28:54.817Z,15.37
2022-09-12T02:31:31.523Z,15.39
2022-09-12T02:34:34.736Z,15.44
2022-09-12T02:37:11.073Z,15.40
2022-09-12T02:39:41.101Z,15.37
2022-09-12T02:42:10.617Z,15.35
2022-09-12T02:44:38.332Z,15.32
2022-09-12T02:47:22.309Z,15.37
2022-09-12T02:49:49.659Z,15.31
2022-09-12T02:52:17.623Z,15.31
2022-09-12T02:54:45.439Z,15.23
2022-09-12T02:57:21.876Z,15.20
2022-09-12T02:59:53.646Z,15.15
2022-09-12T03:02:28.245Z,15.19
2022-09-12T03:05:33.025Z,15.19
2022-09-12T03:08:17.469Z,15.22
2022-09-12T03:11:21.159Z,15.22
2022-09-12T03:14:01.954Z,15.30
2022-09-12T03:16:41.607Z,15.28
2022-09-12T03:19:34.216Z,15.30
2022-09-12T03:22:07.193Z,15.35
2022-09-12T03:24:49.425Z,15.25
2022-09-12T03:27:22.383Z,15.25
2022-09-12T03:29:51.332Z,15.24
2022-09-12T03:32:18.549Z,15.13
2022-09-12T03:34:45.741Z,15.10
2022-09-12T03:37:12.945Z,15.12
2022-09-12T03:39:40.338Z,15.02
2022-09-12T03:42:07.675Z,15.10
2022-09-12T03:44:34.939Z,15.09
2022-09-12T03:47:02.160Z,15.05
2022-09-12T03:49:29.333Z,15.01
2022-09-12T03:51:56.515Z,15.05
2022-09-12T03:54:23.731Z,15.04
2022-09-12T03:56:50.905Z,14.99
2022-09-12T03:59:18.098Z,14.93
2022-09-12T04:01:45.247Z,14.87
2022-09-12T04:04:12.433Z,14.93
2022-09-12T04:06:39.604Z,14.88
2022-09-12T04:09:06.811Z,14.84
2022-09-12T04:11:35.782Z,14.76
2022-09-12T04:14:03.047Z,14.82
2022-09-12T04:16:30.300Z,14.88
2022-09-12T04:18:57.551Z,14.85
2022-09-12T04:21:25.119Z,14.70
2022-09-12T04:23:52.298Z,14.77
2022-09-12T04:26:20.970Z,14.69
2022-09-12T04:28:48.758Z,14.62
2022-09-12T04:31:19.988Z,14.66
2022-09-12T04:33:47.383Z,14.66
2022-09-12T04:36:17.816Z,14.62
2022-09-12T04:38:47.139Z,14.54
2022-09-12T04:41:26.176Z,14.59
2022-09-12T04:44:01.215Z,14.61
2022-09-12T04:46:30.096Z,14.58
2022-09-12T04:48:57.938Z,14.56
2022-09-12T04:51:30.204Z,14.54
2022-09-12T04:53:59.927Z,14.49
2022-09-12T04:56:28.949Z,14.48
2022-09-12T04:59:00.614Z,14.54
2022-09-12T05:01:29.788Z,14.47
2022-09-12T05:03:59.806Z,14.60
2022-09-12T05:06:30.167Z,14.54
2022-09-12T05:08:58.532Z,14.47
2022-09-12T05:11:46.873Z,14.42
2022-09-12T05:14:16.954Z,14.56
2022-09-12T05:16:48.557Z,14.60
2022-09-12T05:19:17.371Z,14.59
2022-09-12T05:21:44.585Z,14.59
2022-09-12T05:24:11.763Z,14.70
2022-09-12T05:26:38.969Z,14.70
2022-09-12T05:29:07.159Z,14.82
2022-09-12T05:31:34.980Z,14.63
2022-09-12T05:34:06.985Z,14.72
2022-09-12T05:36:34.230Z,14.89
2022-09-12T05:39:01.635Z,14.92
2022-09-12T05:41:30.937Z,14.82
2022-09-12T05:44:00.704Z,14.99
2022-09-12T05:46:30.716Z,15.21
2022-09-12T05:49:02.389Z,15.30
2022-09-12T05:51:34.547Z,15.40
2022-09-12T05:54:05.773Z,15.57
2022-09-12T05:56:34.923Z,15.62
2022-09-12T05:59:04.733Z,15.77
2022-09-12T06:01:33.342Z,15.91
2022-09-12T06:04:04.620Z,16.07
2022-09-12T06:06:35.018Z,16.23
2022-09-12T06:09:04.308Z,16.27
2022-09-12T06:11:36.122Z,16.23
2022-09-12T06:14:03.920Z,16.33
2022-09-12T06:16:33.518Z,16.56
2022-09-12T06:19:03.653Z,16.83
2022-09-12T06:21:31.329Z,16.91
2022-09-12T06:23:59.196Z,16.99
2022-09-12T06:26:27.591Z,17.16
2022-09-12T06:28:56.683Z,17.31
2022-09-12T06:31:27.887Z,17.33
2022-09-12T06:33:56.923Z,17.51
2022-09-12T06:36:28.427Z,17.51
2022-09-12T06:39:01.235Z,17.68
2022-09-12T06:41:29.877Z,17.84
2022-09-12T06:43:58.627Z,18.00
2022-09-12T06:46:26.184Z,17.95
2022-09-12T06:48:55.756Z,18.24
2022-09-12T06:51:23.452Z,18.45
2022-09-12T06:53:50.853Z,18.44
2022-09-12T06:56:19.988Z,18.57
2022-09-12T06:58:48.751Z,18.52
2022-09-12T07:01:22.514Z,18.85
2022-09-12T07:03:59.318Z,18.86
2022-09-12T07:06:32.704Z,18.81
2022-09-12T07:09:00.983Z,19.02
2022-09-12T07:11:31.874Z,19.15
2022-09-12T07:14:01.592Z,19.46
2022-09-12T07:16:30.423Z,19.22
2022-09-12T07:19:03.352Z,19.71
2022-09-12T07:21:46.807Z,20.01
2022-09-12T07:24:22.121Z,20.07
2022-09-12T07:26:51.595Z,20.35
2022-09-12T07:29:35.966Z,20.55
2022-09-12T07:32:05.874Z,20.93
2022-09-12T07:34:33.959Z,20.87
2022-09-12T07:37:01.183Z,20.87
2022-09-12T07:39:28.406Z,21.01
2022-09-12T07:41:55.943Z,21.03
2022-09-12T07:44:23.692Z,21.16
2022-09-12T07:46:50.958Z,20.87
2022-09-12T07:49:18.251Z,21.00
2022-09-12T07:51:45.926Z,21.09
2022-09-12T07:54:13.341Z,21.22
2022-09-12T07:56:40.844Z,21.54
2022-09-12T07:59:09.734Z,21.84
2022-09-12T08:01:45.710Z,21.82
2022-09-12T08:04:14.618Z,21.99
2022-09-12T08:06:41.927Z,22.10
2022-09-12T08:09:09.273Z,22.58
2022-09-12T08:11:36.526Z,22.83
2022-09-12T08:14:05.628Z,23.00
2022-09-12T08:16:33.972Z,23.24
2022-09-12T08:19:02.972Z,23.32
2022-09-12T08:21:33.139Z,22.61
2022-09-12T08:24:04.062Z,22.42
2022-09-12T08:26:32.937Z,22.47
2022-09-12T08:29:00.899Z,22.75
2022-09-12T08:31:28.571Z,22.41
2022-09-12T08:33:57.535Z,22.85
2022-09-12T08:36:26.792Z,23.05
2022-09-12T08:39:00.586Z,23.25
2022-09-12T08:41:44.288Z,22.83
2022-09-12T08:44:26.349Z,23.03
2022-09-12T08:46:59.515Z,23.32
2022-09-12T08:49:29.749Z,23.50
2022-09-12T08:52:02.734Z,23.89
2022-09-12T08:54:31.632Z,24.17
2022-09-12T08:57:04.087Z,24.35
2022-09-12T08:59:38.259Z,24.55
2022-09-12T09:02:34.437Z,24.39
2022-09-12T09:05:08.159Z,23.82
2022-09-12T09:07:44.649Z,24.24
2022-09-12T09:10:40.169Z,24.53
2022-09-12T09:13:39.851Z,24.89
2022-09-12T09:16:21.516Z,24.93
2022-09-12T09:18:50.559Z,25.03
2022-09-12T09:21:30.254Z,25.18
2022-09-12T09:24:04.029Z,25.21
2022-09-12T09:26:56.483Z,25.27
2022-09-12T09:29:36.966Z,25.45
2022-09-12T09:32:14.321Z,25.40
2022-09-12T09:34:41.793Z,25.39
2022-09-12T09:37:30.138Z,25.17
2022-09-12T09:40:23.332Z,25.43
2022-09-12T09:43:29.308Z,25.04
2022-09-12T09:46:00.465Z,25.36
2022-09-12T09:48:29.812Z,25.58
2022-09-12T09:51:00.404Z,25.79
2022-09-12T09:53:53.795Z,25.97
2022-09-12T09:56:26.798Z,25.98
2022-09-12T09:58:54.126Z,25.54
2022-09-12T10:01:21.386Z,26.05
2022-09-12T10:03:54.044Z,26.04
2022-09-12T10:06:23.428Z,26.08
2022-09-12T10:08:50.853Z,26.15
2022-09-12T10:11:27.003Z,26.42
2022-09-12T10:13:57.670Z,26.30
2022-09-12T10:16:27.953Z,26.37
2022-09-12T10:18:59.882Z,26.48
2022-09-12T10:21:45.472Z,26.53
2022-09-12T10:24:23.969Z,26.83
2022-09-12T10:26:56.969Z,26.57
2022-09-12T10:29:32.122Z,26.41
2022-09-12T10:32:03.588Z,26.52
2022-09-12T10:34:42.140Z,26.83
2022-09-12T10:37:17.724Z,26.67
2022-09-12T10:39:54.419Z,26.77
2022-09-12T10:42:48.293Z,26.45
2022-09-12T10:45:44.754Z,26.83
2022-09-12T10:48:34.185Z,26.97
2022-09-12T10:51:02.747Z,27.11
2022-09-12T10:53:43.109Z,27.03
2022-09-12T10:56:22.924Z,27.21
2022-09-12T10:59:08.560Z,27.30
2022-09-12T11:01:48.740Z,27.33
2022-09-12T11:04:34.456Z,27.29
2022-09-12T11:07:04.445Z,27.42
2022-09-12T11:10:03.069Z,27.49
2022-09-12T11:12:47.018Z,27.67
2022-09-12T11:15:32.677Z,27.55
2022-09-12T11:18:24.812Z,27.75
2022-09-12T11:20:57.571Z,27.46
2022-09-12T11:23:59.949Z,27.46
2022-09-12T11:26:59.867Z,27.62
2022-09-12T11:29:54.903Z,27.67
2022-09-12T11:32:43.262Z,27.29
2022-09-12T11:35:19.452Z,27.24
2022-09-12T11:38:02.704Z,27.21
2022-09-12T11:40:44.426Z,27.57
2022-09-12T11:43:24.012Z,27.80
2022-09-12T11:45:53.008Z,28.06
2022-09-12T11:48:44.844Z,28.24
2022-09-12T11:51:33.940Z,28.24
2022-09-12T11:54:29.754Z,27.79
2022-09-12T11:57:20.866Z,27.67
2022-09-12T11:59:54.540Z,27.83
2022-09-12T12:02:28.756Z,28.03
2022-09-12T12:05:04.894Z,27.96
2022-09-12T12:07:45.455Z,27.85
2022-09-12T12:10:31.660Z,28.18
2022-09-12T12:13:02.777Z,28.17
2022-09-12T12:15:31.798Z,28.38
2022-09-12T12:18:08.423Z,28.37
2022-09-12T12:20:36.405Z,27.77
2022-09-12T12:23:04.143Z,28.28
2022-09-12T12:25:51.964Z,28.45
2022-09-12T12:28:50.680Z,28.23
2022-09-12T12:31:18.977Z,28.31
2022-09-12T12:33:46.187Z,28.46
2022-09-12T12:36:38.607Z,28.22
2022-09-12T12:39:33.703Z,28.26
2022-09-12T12:42:01.679Z,28.47
2022-09-12T12:44:44.262Z,28.10
2022-09-12T12:47:19.830Z,28.19
2022-09-12T12:50:03.078Z,28.14
2022-09-12T12:52:33.436Z,28.29
2022-09-12T12:55:02.211Z,28.64
2022-09-12T12:57:48.513Z,28.73
2022-09-12T13:00:24.452Z,28.92
2022-09-12T13:02:59.731Z,28.79
2022-09-12T13:05:29.282Z,28.71
2022-09-12T13:08:07.966Z,28.93
2022-09-12T13:10:36.982Z,28.66
2022-09-12T13:13:07.028Z,28.70
2022-09-12T13:15:37.097Z,28.92
2022-09-12T13:18:13.772Z,28.93
2022-09-12T13:20:59.961Z,29.02
2022-09-12T13:23:30.607Z,28.97
2022-09-12T13:26:00.584Z,29.01
2022-09-12T13:28:31.694Z,29.30
2022-09-12T13:31:23.411Z,28.98
2022-09-12T13:34:04.265Z,28.95
2022-09-12T13:36:51.286Z,28.59
2022-09-12T13:39:35.720Z,28.95
2022-09-12T13:42:15.150Z,28.79
2022-09-12T13:44:49.671Z,28.70
2022-09-12T13:47:41.377Z,29.21
2022-09-12T13:50:16.718Z,29.53
2022-09-12T13:52:57.169Z,29.63
2022-09-12T13:55:37.669Z,29.23
2022-09-12T13:58:16.551Z,29.34
2022-09-12T14:00:45.023Z,29.03
2022-09-12T14:03:50.651Z,29.32
2022-09-12T14:06:19.103Z,29.36
2022-09-12T14:08:49.794Z,29.31
2022-09-12T14:11:28.643Z,29.22
2022-09-12T14:13:56.997Z,29.47
2022-09-12T14:16:27.388Z,29.35
2022-09-12T14:18:54.959Z,29.15
2022-09-12T14:21:36.475Z,29.60
2022-09-12T14:24:06.764Z,29.71
2022-09-12T14:26:36.580Z,29.39
2022-09-12T14:29:08.959Z,29.20
2022-09-12T14:31:38.466Z,29.23
2022-09-12T14:34:15.011Z,29.39
2022-09-12T14:36:52.555Z,29.18
2022-09-12T14:39:43.111Z,29.05
2022-09-12T14:42:17.916Z,29.15
2022-09-12T14:44:58.316Z,29.03
2022-09-12T14:47:28.213Z,29.19
2022-09-12T14:49:55.657Z,29.13
2022-09-12T14:52:30.374Z,29.29
2022-09-12T14:55:19.756Z,29.71
2022-09-12T14:57:47.916Z,29.56
2022-09-12T15:00:22.269Z,29.09
2022-09-12T15:02:50.927Z,29.31
2022-09-12T15:05:24.623Z,29.32
2022-09-12T15:07:53.802Z,28.84
2022-09-12T15:10:25.743Z,29.03
2022-09-12T15:13:14.329Z,29.22
2022-09-12T15:15:44.540Z,29.05
2022-09-12T15:18:12.310Z,29.21
2022-09-12T15:20:42.568Z,29.24
2022-09-12T15:23:31.116Z,29.01
2022-09-12T15:25:58.310Z,29.18
2022-09-12T15:28:26.842Z,29.56
2022-09-12T15:30:56.727Z,29.81
2022-09-12T15:33:25.156Z,29.84
2022-09-12T15:35:53.383Z,29.07
2022-09-12T15:38:26.184Z,28.30
2022-09-12T15:40:54.600Z,28.11
2022-09-12T15:43:23.154Z,28.33
2022-09-12T15:45:51.789Z,28.34
2022-09-12T15:48:21.045Z,28.06
2022-09-12T15:50:48.541Z,27.91
2022-09-12T15:53:16.942Z,27.84
2022-09-12T15:55:44.905Z,27.47
2022-09-12T15:58:12.833Z,27.53
2022-09-12T16:00:40.228Z,27.62
2022-09-12T16:03:24.040Z,27.68
2022-09-12T16:05:57.086Z,27.50
2022-09-12T16:08:25.046Z,27.33
2022-09-12T16:10:57.314Z,27.24
2022-09-12T16:13:25.472Z,27.27
2022-09-12T16:15:56.182Z,27.18
2022-09-12T16:18:23.653Z,27.09
2022-09-12T16:20:54.866Z,27.14
2022-09-12T16:23:22.785Z,27.08
2022-09-12T16:26:00.659Z,27.01
2022-09-12T16:28:28.086Z,26.92
2022-09-12T16:31:03.145Z,26.81
2022-09-12T16:33:31.636Z,26.72
2022-09-12T16:36:13.334Z,26.71
2022-09-12T16:38:43.727Z,26.64
2022-09-12T16:41:11.817Z,26.55
2022-09-12T16:43:39.448Z,26.42
2022-09-12T16:46:18.490Z,26.36
2022-09-12T16:48:52.599Z,26.28
2022-09-12T16:51:28.545Z,26.18
2022-09-12T16:53:55.792Z,26.06
2022-09-12T16:56:23.399Z,26.00
2022-09-12T16:58:50.902Z,25.89
2022-09-12T17:01:21.693Z,25.83
2022-09-12T17:03:53.436Z,25.77
2022-09-12T17:06:20.627Z,25.72
2022-09-12T17:08:50.684Z,25.63
2022-09-12T17:11:26.870Z,25.58
2022-09-12T17:14:11.738Z,25.49
2022-09-12T17:16:42.733Z,25.37
2022-09-12T17:19:30.200Z,25.31
2022-09-12T17:21:57.854Z,25.19
2022-09-12T17:24:25.500Z,25.03
2022-09-12T17:26:53.695Z,24.93
2022-09-12T17:29:21.205Z,24.83
2022-09-12T17:31:48.853Z,24.69
2022-09-12T17:34:17.605Z,24.62
2022-09-12T17:36:45.446Z,24.35
2022-09-12T17:39:13.867Z,24.13
2022-09-12T17:41:42.735Z,24.31
2022-09-12T17:44:15.054Z,24.34
2022-09-12T17:46:43.019Z,24.37
2022-09-12T17:49:15.461Z,24.24
2022-09-12T17:51:43.860Z,24.23
2022-09-12T17:54:16.120Z,24.16
2022-09-12T17:56:45.494Z,24.11
2022-09-12T17:59:19.171Z,24.07
2022-09-12T18:02:05.401Z,24.02
2022-09-12T18:04:32.662Z,24.00
2022-09-12T18:07:00.461Z,23.97
2022-09-12T18:09:28.304Z,23.88
2022-09-12T18:11:55.998Z,23.80
2022-09-12T18:14:23.750Z,23.78
2022-09-12T18:16:51.003Z,23.74
2022-09-12T18:19:18.292Z,23.64
2022-09-12T18:21:45.780Z,23.58
2022-09-12T18:24:13.148Z,23.48
2022-09-12T18:26:40.501Z,23.50
2022-09-12T18:29:07.870Z,23.46
2022-09-12T18:31:35.278Z,23.39
2022-09-12T18:34:02.931Z,23.31
2022-09-12T18:36:30.803Z,23.31
2022-09-12T18:38:59.313Z,23.24
2022-09-12T18:41:28.784Z,23.17
2022-09-12T18:44:00.950Z,23.12
2022-09-12T18:46:30.291Z,23.03
2022-09-12T18:48:58.343Z,23.01
2022-09-12T18:51:31.565Z,22.90
2022-09-12T18:54:01.745Z,22.84
2022-09-12T18:56:34.415Z,22.78
2022-09-12T18:59:03.663Z,22.73
2022-09-12T19:01:36.252Z,22.69
2022-09-12T19:04:07.641Z,22.62
2022-09-12T19:06:38.547Z,22.60
2022-09-12T19:09:08.326Z,22.55
2022-09-12T19:11:37.831Z,22.47
2022-09-12T19:14:05.727Z,22.42
2022-09-12T19:16:33.628Z,22.43
2022-09-12T19:19:02.550Z,22.37
2022-09-12T19:21:31.049Z,22.34
2022-09-12T19:24:01.274Z,22.27
2022-09-12T19:26:29.044Z,22.24
2022-09-12T19:28:56.996Z,22.20
2022-09-12T19:31:24.917Z,22.17
2022-09-12T19:33:52.443Z,22.11
2022-09-12T19:36:43.762Z,22.03
2022-09-12T19:39:09.583Z,21.97
2022-09-12T19:41:36.928Z,21.91
2022-09-12T19:44:05.191Z,21.88
2022-09-12T19:46:32.647Z,21.76
2022-09-12T19:49:00.011Z,21.71
2022-09-12T19:51:27.295Z,21.70
2022-09-12T19:53:54.505Z,21.71
2022-09-12T19:56:21.834Z,21.62
2022-09-12T19:58:55.306Z,21.56
2022-09-12T20:01:28.193Z,21.45
2022-09-12T20:03:59.185Z,21.42
2022-09-12T20:06:27.496Z,21.41
2022-09-12T20:08:55.659Z,21.45
2022-09-12T20:11:24.394Z,21.39
2022-09-12T20:13:51.961Z,21.43
2022-09-12T20:16:22.666Z,21.45
2022-09-12T20:18:58.368Z,21.48
2022-09-12T20:21:35.837Z,21.46
2022-09-12T20:24:20.882Z,21.53
2022-09-12T20:26:48.267Z,21.46
2022-09-12T20:29:15.673Z,21.44
2022-09-12T20:31:43.811Z,21.41
2022-09-12T20:34:15.603Z,21.38
2022-09-12T20:36:42.852Z,21.39
2022-09-12T20:39:15.299Z,21.34
2022-09-12T20:41:42.532Z,21.37
2022-09-12T20:44:10.112Z,21.39
2022-09-12T20:46:37.490Z,21.35
2022-09-12T20:49:04.833Z,21.29
2022-09-12T20:51:32.164Z,21.25
2022-09-12T20:54:05.115Z,21.18
2022-09-12T20:56:34.715Z,21.12
2022-09-12T20:59:01.971Z,21.15
2022-09-12T21:01:31.263Z,21.14
2022-09-12T21:04:00.745Z,21.19
2022-09-12T21:06:28.401Z,21.20
2022-09-12T21:09:00.544Z,21.12
2022-09-12T21:11:29.198Z,21.06
2022-09-12T21:13:56.692Z,21.13
2022-09-12T21:16:24.305Z,21.13
2022-09-12T21:18:57.092Z,21.13
2022-09-12T21:21:24.870Z,21.09
2022-09-12T21:23:54.062Z,21.03
2022-09-12T21:26:21.444Z,20.98
2022-09-12T21:28:48.889Z,20.90
2022-09-12T21:31:16.344Z,20.82
2022-09-12T21:33:43.606Z,20.73
2022-09-12T21:36:10.799Z,20.62
2022-09-12T21:38:38.188Z,20.49
2022-09-12T21:41:07.820Z,20.42
2022-09-12T21:43:35.884Z,20.34
2022-09-12T21:46:03.958Z,20.28
2022-09-12T21:48:31.639Z,20.09
2022-09-12T21:50:59.505Z,20.11
2022-09-12T21:53:27.264Z,20.11
2022-09-12T21:55:54.811Z,20.11
2022-09-12T21:58:22.019Z,20.05
2022-09-12T22:00:49.652Z,19.97
2022-09-12T22:03:17.372Z,19.97
2022-09-12T22:05:44.568Z,19.91
2022-09-12T22:08:12.083Z,19.84
2022-09-12T22:10:40.171Z,19.80
2022-09-12T22:13:07.383Z,19.77
2022-09-12T22:15:41.821Z,19.75
2022-09-12T22:18:09.099Z,19.75
2022-09-12T22:20:36.324Z,19.73
2022-09-12T22:23:24.833Z,19.77
2022-09-12T22:25:57.216Z,19.69
2022-09-12T22:28:25.153Z,19.60
2022-09-12T22:30:54.404Z,19.54
2022-09-12T22:33:21.960Z,19.56
2022-09-12T22:35:49.216Z,19.57
2022-09-12T22:38:16.424Z,19.49
2022-09-12T22:40:43.967Z,19.42
2022-09-12T22:43:11.792Z,19.38
2022-09-12T22:45:41.831Z,19.31
2022-09-12T22:48:09.430Z,19.27
2022-09-12T22:50:36.732Z,19.10
2022-09-12T22:53:04.303Z,19.00
2022-09-12T22:55:31.684Z,18.94
2022-09-12T22:57:58.847Z,18.82
2022-09-12T23:00:28.005Z,18.80
2022-09-12T23:05:23.588Z,18.73
2022-09-12T23:07:51.114Z,18.61
2022-09-12T23:10:18.364Z,18.50
2022-09-12T23:12:45.706Z,18.58
2022-09-12T23:15:13.081Z,18.54
2022-09-12T23:17:40.517Z,18.59
2022-09-12T23:20:08.236Z,18.60
2022-09-12T23:22:37.119Z,18.50
2022-09-12T23:25:04.643Z,18.49
2022-09-12T23:27:31.846Z,18.40
2022-09-12T23:29:59.116Z,18.37
2022-09-12T23:32:26.303Z,18.44
2022-09-12T23:34:53.480Z,18.46
2022-09-12T23:37:21.679Z,18.46
2022-09-12T23:39:49.689Z,18.33
2022-09-12T23:42:17.476Z,18.16
2022-09-12T23:44:44.680Z,18.16
2022-09-12T23:47:11.925Z,18.19
2022-09-12T23:49:39.147Z,18.20
2022-09-12T23:52:06.365Z,18.13
2022-09-12T23:54:33.580Z,18.06
2022-09-12T23:57:00.757Z,18.05
2022-09-12T23:59:27.987Z,17.97
